sensor_id;sensor_type;location;lat;lon;timestamp;pressure;altitude;pressure_sealevel;temperature;humidity
51928;BME280;37953;52.806;18.270;2023-05-25T00:00:32;101071.63;;;14.89;100.00
51928;BME280;37953;52.806;18.270;2023-05-25T00:03:16;101073.41;;;14.86;100.00
51928;BME280;37953;52.806;18.270;2023-05-25T00:05:42;101080.38;;;14.84;100.00
51928;BME280;37953;52.806;18.270;2023-05-25T00:08:09;101085.63;;;14.84;100.00
51928;BME280;37953;52.806;18.270;2023-05-25T00:10:47;101087.34;;;14.85;100.00
51928;BME280;37953;52.806;18.270;2023-05-25T00:13:13;101084.75;;;14.82;100.00
51928;BME280;37953;52.806;18.270;2023-05-25T00:15:39;101084.75;;;14.82;100.00
51928;BME280;37953;52.806;18.270;2023-05-25T00:18:05;101089.97;;;14.79;100.00
51928;BME280;37953;52.806;18.270;2023-05-25T00:20:31;101096.09;;;14.80;100.00
51928;BME280;37953;52.806;18.270;2023-05-25T00:22:58;101092.63;;;14.78;100.00
51928;BME280;37953;52.806;18.270;2023-05-25T00:25:24;101096.97;;;14.77;100.00
51928;BME280;37953;52.806;18.270;2023-05-25T00:27:50;101083.06;;;14.74;100.00
51928;BME280;37953;52.806;18.270;2023-05-25T00:30:16;101085.66;;;14.75;100.00
51928;BME280;37953;52.806;18.270;2023-05-25T00:32:41;101081.28;;;14.76;100.00
51928;BME280;37953;52.806;18.270;2023-05-25T00:35:08;101083.06;;;14.75;100.00
51928;BME280;37953;52.806;18.270;2023-05-25T00:37:34;101080.44;;;14.74;100.00
51928;BME280;37953;52.806;18.270;2023-05-25T00:39:59;101082.19;;;14.72;100.00
51928;BME280;37953;52.806;18.270;2023-05-25T00:42:26;101081.28;;;14.73;100.00
51928;BME280;37953;52.806;18.270;2023-05-25T00:44:53;101074.34;;;14.70;100.00
51928;BME280;37953;52.806;18.270;2023-05-25T00:47:19;101066.53;;;14.65;100.00
51928;BME280;37953;52.806;18.270;2023-05-25T00:49:45;101070.84;;;14.68;100.00
51928;BME280;37953;52.806;18.270;2023-05-25T00:52:12;101070.84;;;14.66;100.00
51928;BME280;37953;52.806;18.270;2023-05-25T00:54:45;101070.00;;;14.64;100.00
51928;BME280;37953;52.806;18.270;2023-05-25T00:57:13;101070.88;;;14.62;100.00
51928;BME280;37953;52.806;18.270;2023-05-25T00:59:45;101077.88;;;14.63;100.00
51928;BME280;37953;52.806;18.270;2023-05-25T01:02:18;101090.06;;;14.59;100.00
51928;BME280;37953;52.806;18.270;2023-05-25T01:04:46;101083.13;;;14.57;100.00
51928;BME280;37953;52.806;18.270;2023-05-25T01:07:22;101086.59;;;14.56;100.00
51928;BME280;37953;52.806;18.270;2023-05-25T01:09:56;101081.38;;;14.56;100.00
51928;BME280;37953;52.806;18.270;2023-05-25T01:12:23;101074.41;;;14.50;100.00
51928;BME280;37953;52.806;18.270;2023-05-25T01:14:58;101084.84;;;14.55;100.00
51928;BME280;37953;52.806;18.270;2023-05-25T01:17:25;101095.28;;;14.52;100.00
51928;BME280;37953;52.806;18.270;2023-05-25T01:19:53;101106.63;;;14.52;100.00
51928;BME280;37953;52.806;18.270;2023-05-25T01:22:36;101104.00;;;14.54;100.00
51928;BME280;37953;52.806;18.270;2023-05-25T01:25:19;101102.28;;;14.54;100.00
51928;BME280;37953;52.806;18.270;2023-05-25T01:30:24;101104.00;;;14.48;100.00
51928;BME280;37953;52.806;18.270;2023-05-25T01:32:52;101099.69;;;14.48;100.00
51928;BME280;37953;52.806;18.270;2023-05-25T01:35:19;101109.25;;;14.48;100.00
51928;BME280;37953;52.806;18.270;2023-05-25T01:37:52;101107.53;;;14.48;100.00
51928;BME280;37953;52.806;18.270;2023-05-25T01:40:18;101102.31;;;14.42;100.00
51928;BME280;37953;52.806;18.270;2023-05-25T01:42:44;101103.19;;;14.44;100.00
51928;BME280;37953;52.806;18.270;2023-05-25T01:45:12;101099.69;;;14.42;100.00
51928;BME280;37953;52.806;18.270;2023-05-25T01:50:37;101101.44;;;14.41;100.00
51928;BME280;37953;52.806;18.270;2023-05-25T01:53:22;101093.59;;;14.41;100.00
51928;BME280;37953;52.806;18.270;2023-05-25T01:55:58;101090.09;;;14.41;100.00
51928;BME280;37953;52.806;18.270;2023-05-25T01:58:26;101095.34;;;14.38;100.00
51928;BME280;37953;52.806;18.270;2023-05-25T02:00:54;101098.84;;;14.35;100.00
51928;BME280;37953;52.806;18.270;2023-05-25T02:03:21;101098.84;;;14.35;100.00
51928;BME280;37953;52.806;18.270;2023-05-25T02:05:47;101096.22;;;14.34;100.00
51928;BME280;37953;52.806;18.270;2023-05-25T02:08:13;101093.63;;;14.34;100.00
51928;BME280;37953;52.806;18.270;2023-05-25T02:10:45;101100.59;;;14.33;100.00
51928;BME280;37953;52.806;18.270;2023-05-25T02:13:11;101097.97;;;14.29;100.00
51928;BME280;37953;52.806;18.270;2023-05-25T02:15:37;101106.69;;;14.28;100.00
51928;BME280;37953;52.806;18.270;2023-05-25T02:18:03;101105.84;;;14.27;100.00
51928;BME280;37953;52.806;18.270;2023-05-25T02:20:30;101099.75;;;14.27;100.00
51928;BME280;37953;52.806;18.270;2023-05-25T02:22:56;101098.00;;;14.25;100.00
51928;BME280;37953;52.806;18.270;2023-05-25T02:25:22;101099.72;;;14.23;100.00
51928;BME280;37953;52.806;18.270;2023-05-25T02:27:49;101104.97;;;14.20;100.00
51928;BME280;37953;52.806;18.270;2023-05-25T02:30:15;101102.38;;;14.20;100.00
51928;BME280;37953;52.806;18.270;2023-05-25T02:32:41;101112.81;;;14.17;100.00
51928;BME280;37953;52.806;18.270;2023-05-25T02:35:07;101112.81;;;14.14;100.00
51928;BME280;37953;52.806;18.270;2023-05-25T02:37:33;101106.72;;;14.14;100.00
51928;BME280;37953;52.806;18.270;2023-05-25T02:39:59;101107.59;;;14.11;100.00
51928;BME280;37953;52.806;18.270;2023-05-25T02:42:25;101115.44;;;14.10;100.00
51928;BME280;37953;52.806;18.270;2023-05-25T02:44:51;101117.19;;;14.08;100.00
51928;BME280;37953;52.806;18.270;2023-05-25T02:47:17;101124.16;;;14.05;100.00
51928;BME280;37953;52.806;18.270;2023-05-25T02:49:44;101123.28;;;14.03;100.00
51928;BME280;37953;52.806;18.270;2023-05-25T02:52:10;101125.00;;;14.03;100.00
51928;BME280;37953;52.806;18.270;2023-05-25T02:54:36;101125.91;;;14.00;100.00
51928;BME280;37953;52.806;18.270;2023-05-25T02:57:03;101118.06;;;14.00;100.00
51928;BME280;37953;52.806;18.270;2023-05-25T02:59:29;101119.81;;;14.00;100.00
51928;BME280;37953;52.806;18.270;2023-05-25T03:01:57;101113.69;;;13.95;100.00
51928;BME280;37953;52.806;18.270;2023-05-25T03:04:22;101112.84;;;13.93;100.00
51928;BME280;37953;52.806;18.270;2023-05-25T03:06:48;101111.97;;;13.92;100.00
51928;BME280;37953;52.806;18.270;2023-05-25T03:09:14;101119.81;;;13.94;100.00
51928;BME280;37953;52.806;18.270;2023-05-25T03:11:40;101125.91;;;13.93;100.00
51928;BME280;37953;52.806;18.270;2023-05-25T03:14:06;101115.47;;;13.87;100.00
51928;BME280;37953;52.806;18.270;2023-05-25T03:16:32;101131.13;;;13.90;100.00
51928;BME280;37953;52.806;18.270;2023-05-25T03:19:01;101130.25;;;13.89;100.00
51928;BME280;37953;52.806;18.270;2023-05-25T03:21:27;101113.72;;;13.79;100.00
51928;BME280;37953;52.806;18.270;2023-05-25T03:23:53;101135.47;;;13.88;100.00
51928;BME280;37953;52.806;18.270;2023-05-25T03:26:19;101134.63;;;13.89;100.00
51928;BME280;37953;52.806;18.270;2023-05-25T03:28:45;101132.00;;;13.87;100.00
51928;BME280;37953;52.806;18.270;2023-05-25T03:31:11;101118.94;;;13.82;100.00
51928;BME280;37953;52.806;18.270;2023-05-25T03:33:37;101132.00;;;13.89;100.00
51928;BME280;37953;52.806;18.270;2023-05-25T03:36:09;101139.81;;;13.90;100.00
51928;BME280;37953;52.806;18.270;2023-05-25T03:38:41;101142.47;;;13.89;100.00
51928;BME280;37953;52.806;18.270;2023-05-25T03:41:07;101138.09;;;13.91;100.00
51928;BME280;37953;52.806;18.270;2023-05-25T03:43:35;101143.34;;;13.91;100.00
51928;BME280;37953;52.806;18.270;2023-05-25T03:46:01;101144.19;;;13.90;100.00
51928;BME280;37953;52.806;18.270;2023-05-25T03:48:27;101147.66;;;13.90;100.00
51928;BME280;37953;52.806;18.270;2023-05-25T03:50:54;101146.78;;;13.90;100.00
51928;BME280;37953;52.806;18.270;2023-05-25T03:53:19;101145.06;;;13.89;100.00
51928;BME280;37953;52.806;18.270;2023-05-25T03:55:46;101143.31;;;13.88;100.00
51928;BME280;37953;52.806;18.270;2023-05-25T03:58:12;101151.16;;;13.88;100.00
51928;BME280;37953;52.806;18.270;2023-05-25T04:00:38;101152.03;;;13.90;100.00
51928;BME280;37953;52.806;18.270;2023-05-25T04:03:04;101159.84;;;13.90;100.00
51928;BME280;37953;52.806;18.270;2023-05-25T04:05:31;101165.94;;;13.90;100.00
51928;BME280;37953;52.806;18.270;2023-05-25T04:07:57;101167.69;;;13.90;100.00
51928;BME280;37953;52.806;18.270;2023-05-25T04:10:23;101166.84;;;13.89;100.00
51928;BME280;37953;52.806;18.270;2023-05-25T04:12:49;101165.09;;;13.90;100.00
51928;BME280;37953;52.806;18.270;2023-05-25T04:15:24;101179.00;;;13.90;100.00
51928;BME280;37953;52.806;18.270;2023-05-25T04:17:51;101165.09;;;13.91;100.00
51928;BME280;37953;52.806;18.270;2023-05-25T04:20:17;101163.34;;;13.92;100.00
51928;BME280;37953;52.806;18.270;2023-05-25T04:22:42;101165.97;;;13.92;100.00
51928;BME280;37953;52.806;18.270;2023-05-25T04:25:09;101172.03;;;13.92;100.00
51928;BME280;37953;52.806;18.270;2023-05-25T04:27:35;101165.97;;;13.92;100.00
51928;BME280;37953;52.806;18.270;2023-05-25T04:30:03;101172.94;;;13.93;100.00
51928;BME280;37953;52.806;18.270;2023-05-25T04:32:31;101162.47;;;13.91;100.00
51928;BME280;37953;52.806;18.270;2023-05-25T04:35:02;101165.09;;;13.93;100.00
51928;BME280;37953;52.806;18.270;2023-05-25T04:37:27;101168.56;;;13.93;100.00
51928;BME280;37953;52.806;18.270;2023-05-25T04:39:55;101172.94;;;13.93;100.00
51928;BME280;37953;52.806;18.270;2023-05-25T04:42:22;101166.81;;;13.94;100.00
51928;BME280;37953;52.806;18.270;2023-05-25T04:44:54;101169.44;;;13.95;100.00
51928;BME280;37953;52.806;18.270;2023-05-25T04:47:21;101165.94;;;13.96;100.00
51928;BME280;37953;52.806;18.270;2023-05-25T04:49:47;101163.34;;;13.98;100.00
51928;BME280;37953;52.806;18.270;2023-05-25T04:52:13;101167.69;;;13.99;100.00
51928;BME280;37953;52.806;18.270;2023-05-25T04:54:39;101171.16;;;14.01;100.00
51928;BME280;37953;52.806;18.270;2023-05-25T04:57:09;101168.56;;;14.05;100.00
51928;BME280;37953;52.806;18.270;2023-05-25T04:59:35;101169.44;;;14.06;100.00
51928;BME280;37953;52.806;18.270;2023-05-25T05:02:01;101177.28;;;14.06;100.00
51928;BME280;37953;52.806;18.270;2023-05-25T05:04:27;101174.66;;;14.06;100.00
51928;BME280;37953;52.806;18.270;2023-05-25T05:06:53;101170.31;;;14.08;100.00
51928;BME280;37953;52.806;18.270;2023-05-25T05:09:19;101162.47;;;14.10;100.00
51928;BME280;37953;52.806;18.270;2023-05-25T05:11:45;101164.22;;;14.12;100.00
51928;BME280;37953;52.806;18.270;2023-05-25T05:14:11;101162.47;;;14.14;100.00
51928;BME280;37953;52.806;18.270;2023-05-25T05:16:37;101165.06;;;14.16;100.00
51928;BME280;37953;52.806;18.270;2023-05-25T05:19:03;101167.69;;;14.20;100.00
51928;BME280;37953;52.806;18.270;2023-05-25T05:21:29;101165.09;;;14.20;100.00
51928;BME280;37953;52.806;18.270;2023-05-25T05:23:55;101169.41;;;14.21;100.00
51928;BME280;37953;52.806;18.270;2023-05-25T05:26:21;101163.31;;;14.24;100.00
51928;BME280;37953;52.806;18.270;2023-05-25T05:28:47;101165.94;;;14.25;100.00
51928;BME280;37953;52.806;18.270;2023-05-25T05:31:13;101156.34;;;14.28;100.00
51928;BME280;37953;52.806;18.270;2023-05-25T05:33:42;101165.06;;;14.31;100.00
51928;BME280;37953;52.806;18.270;2023-05-25T05:36:08;101161.59;;;14.35;100.00
51928;BME280;37953;52.806;18.270;2023-05-25T05:38:37;101163.31;;;14.38;100.00
51928;BME280;37953;52.806;18.270;2023-05-25T05:41:04;101172.88;;;14.51;100.00
51928;BME280;37953;52.806;18.270;2023-05-25T05:43:41;101165.91;;;14.47;100.00
51928;BME280;37953;52.806;18.270;2023-05-25T05:46:14;101169.38;;;14.49;100.00
51928;BME280;37953;52.806;18.270;2023-05-25T05:48:40;101165.00;;;14.51;100.00
51928;BME280;37953;52.806;18.270;2023-05-25T05:51:06;101158.91;;;14.54;100.00
51928;BME280;37953;52.806;18.270;2023-05-25T05:53:32;101161.56;;;14.55;100.00
51928;BME280;37953;52.806;18.270;2023-05-25T05:56:01;101150.22;;;14.59;100.00
51928;BME280;37953;52.806;18.270;2023-05-25T05:58:28;101157.19;;;14.63;100.00
51928;BME280;37953;52.806;18.270;2023-05-25T06:00:55;101165.00;;;14.66;100.00
51928;BME280;37953;52.806;18.270;2023-05-25T06:03:27;101165.88;;;14.72;100.00
51928;BME280;37953;52.806;18.270;2023-05-25T06:05:53;101160.63;;;14.75;100.00
51928;BME280;37953;52.806;18.270;2023-05-25T06:08:19;101156.25;;;14.78;100.00
51928;BME280;37953;52.806;18.270;2023-05-25T06:10:46;101162.34;;;14.80;100.00
51928;BME280;37953;52.806;18.270;2023-05-25T06:13:12;101160.59;;;14.84;100.00
51928;BME280;37953;52.806;18.270;2023-05-25T06:15:38;101164.06;;;14.88;100.00
51928;BME280;37953;52.806;18.270;2023-05-25T06:18:04;101157.97;;;14.90;100.00
51928;BME280;37953;52.806;18.270;2023-05-25T06:20:30;101164.03;;;14.94;100.00
51928;BME280;37953;52.806;18.270;2023-05-25T06:22:56;101165.75;;;14.96;100.00
51928;BME280;37953;52.806;18.270;2023-05-25T06:25:22;101162.28;;;14.99;100.00
51928;BME280;37953;52.806;18.270;2023-05-25T06:27:48;101159.66;;;15.00;100.00
51928;BME280;37953;52.806;18.270;2023-05-25T06:30:15;101163.13;;;15.05;100.00
51928;BME280;37953;52.806;18.270;2023-05-25T06:32:41;101167.47;;;15.10;100.00
51928;BME280;37953;52.806;18.270;2023-05-25T06:35:08;101169.19;;;15.12;100.00
51928;BME280;37953;52.806;18.270;2023-05-25T06:37:34;101177.91;;;15.16;100.00
51928;BME280;37953;52.806;18.270;2023-05-25T06:40:07;101177.88;;;15.19;100.00
51928;BME280;37953;52.806;18.270;2023-05-25T06:42:36;101183.13;;;15.22;100.00
51928;BME280;37953;52.806;18.270;2023-05-25T06:45:03;101182.19;;;15.26;100.00
51928;BME280;37953;52.806;18.270;2023-05-25T06:47:30;101182.19;;;15.29;100.00
51928;BME280;37953;52.806;18.270;2023-05-25T06:49:56;101187.41;;;15.34;100.00
51928;BME280;37953;52.806;18.270;2023-05-25T06:52:23;101188.28;;;15.36;100.00
51928;BME280;37953;52.806;18.270;2023-05-25T06:54:49;101181.28;;;15.39;100.00
51928;BME280;37953;52.806;18.270;2023-05-25T06:57:15;101181.25;;;15.42;100.00
51928;BME280;37953;52.806;18.270;2023-05-25T06:59:41;101197.81;;;15.44;100.00
51928;BME280;37953;52.806;18.270;2023-05-25T07:02:07;101187.34;;;15.46;100.00
51928;BME280;37953;52.806;18.270;2023-05-25T07:04:33;101189.06;;;15.48;100.00
51928;BME280;37953;52.806;18.270;2023-05-25T07:06:59;101193.41;;;15.53;100.00
51928;BME280;37953;52.806;18.270;2023-05-25T07:09:25;101191.66;;;15.55;100.00
51928;BME280;37953;52.806;18.270;2023-05-25T07:11:51;101188.13;;;15.59;100.00
51928;BME280;37953;52.806;18.270;2023-05-25T07:14:17;101183.75;;;15.62;100.00
51928;BME280;37953;52.806;18.270;2023-05-25T07:16:43;101187.22;;;15.66;100.00
51928;BME280;37953;52.806;18.270;2023-05-25T07:19:10;101186.31;;;15.70;100.00
51928;BME280;37953;52.806;18.270;2023-05-25T07:21:36;101189.81;;;15.72;100.00
51928;BME280;37953;52.806;18.270;2023-05-25T07:24:03;101182.81;;;15.74;100.00
51928;BME280;37953;52.806;18.270;2023-05-25T07:26:30;101186.28;;;15.76;100.00
51928;BME280;37953;52.806;18.270;2023-05-25T07:29:02;101185.41;;;15.82;100.00
51928;BME280;37953;52.806;18.270;2023-05-25T07:33:56;101192.34;;;15.87;100.00
51928;BME280;37953;52.806;18.270;2023-05-25T07:36:22;101190.59;;;15.90;100.00
51928;BME280;37953;52.806;18.270;2023-05-25T07:38:49;101177.44;;;15.93;100.00
51928;BME280;37953;52.806;18.270;2023-05-25T07:41:15;101177.41;;;15.96;100.00
51928;BME280;37953;52.806;18.270;2023-05-25T07:43:41;101180.88;;;15.98;100.00
51928;BME280;37953;52.806;18.270;2023-05-25T07:46:07;101180.03;;;16.00;100.00
51928;BME280;37953;52.806;18.270;2023-05-25T07:48:33;101187.84;;;16.05;100.00
51928;BME280;37953;52.806;18.270;2023-05-25T07:50:59;101188.66;;;16.08;100.00
51928;BME280;37953;52.806;18.270;2023-05-25T07:53:26;101193.00;;;16.13;100.00
51928;BME280;37953;52.806;18.270;2023-05-25T07:55:52;101197.34;;;16.17;100.00
51928;BME280;37953;52.806;18.270;2023-05-25T07:58:17;101196.41;;;16.21;100.00
51928;BME280;37953;52.806;18.270;2023-05-25T08:00:43;101202.50;;;16.24;100.00
51928;BME280;37953;52.806;18.270;2023-05-25T08:03:09;101206.00;;;16.28;100.00
51928;BME280;37953;52.806;18.270;2023-05-25T08:05:36;101198.09;;;16.31;100.00
51928;BME280;37953;52.806;18.270;2023-05-25T08:08:02;101198.94;;;16.36;100.00
51928;BME280;37953;52.806;18.270;2023-05-25T08:10:28;101196.25;;;16.39;100.00
51928;BME280;37953;52.806;18.270;2023-05-25T08:12:58;101203.22;;;16.45;100.00
51928;BME280;37953;52.806;18.270;2023-05-25T08:15:24;101198.78;;;16.50;100.00
51928;BME280;37953;52.806;18.270;2023-05-25T08:17:51;101199.63;;;16.55;100.00
51928;BME280;37953;52.806;18.270;2023-05-25T08:20:17;101197.81;;;16.60;100.00
51928;BME280;37953;52.806;18.270;2023-05-25T08:22:46;101200.38;;;16.63;100.00
51928;BME280;37953;52.806;18.270;2023-05-25T08:25:12;101202.94;;;16.69;100.00
51928;BME280;37953;52.806;18.270;2023-05-25T08:27:38;101209.03;;;16.73;100.00
51928;BME280;37953;52.806;18.270;2023-05-25T08:30:05;101208.13;;;16.77;100.00
51928;BME280;37953;52.806;18.270;2023-05-25T08:32:31;101201.97;;;16.80;100.00
51928;BME280;37953;52.806;18.270;2023-05-25T08:34:57;101199.34;;;16.83;100.00
51928;BME280;37953;52.806;18.270;2023-05-25T08:37:23;101201.00;;;16.88;100.00
51928;BME280;37953;52.806;18.270;2023-05-25T08:39:56;101205.34;;;16.93;100.00
51928;BME280;37953;52.806;18.270;2023-05-25T08:42:28;101198.31;;;16.96;100.00
51928;BME280;37953;52.806;18.270;2023-05-25T08:44:55;101199.09;;;17.01;100.00
51928;BME280;37953;52.806;18.270;2023-05-25T08:47:21;101203.47;;;17.04;100.00
51928;BME280;37953;52.806;18.270;2023-05-25T08:49:48;101202.53;;;17.08;100.00
51928;BME280;37953;52.806;18.270;2023-05-25T08:52:20;101204.22;;;17.12;100.00
51928;BME280;37953;52.806;18.270;2023-05-25T08:54:52;101206.84;;;17.15;100.00
51928;BME280;37953;52.806;18.270;2023-05-25T09:00:02;101203.22;;;17.24;100.00
51928;BME280;37953;52.806;18.270;2023-05-25T09:02:43;101204.00;;;17.29;100.00
51928;BME280;37953;52.806;18.270;2023-05-25T09:05:10;101204.84;;;17.34;100.00
51928;BME280;37953;52.806;18.270;2023-05-25T09:07:38;101205.63;;;17.41;100.00
51928;BME280;37953;52.806;18.270;2023-05-25T09:10:08;101201.22;;;17.43;100.00
51928;BME280;37953;52.806;18.270;2023-05-25T09:12:42;101204.66;;;17.46;100.00
51928;BME280;37953;52.806;18.270;2023-05-25T09:15:09;101216.88;;;17.50;100.00
51928;BME280;37953;52.806;18.270;2023-05-25T09:17:35;101217.69;;;17.54;100.00
51928;BME280;37953;52.806;18.270;2023-05-25T09:20:02;101207.09;;;17.59;100.00
51928;BME280;37953;52.806;18.270;2023-05-25T09:22:28;101211.41;;;17.64;100.00
51928;BME280;37953;52.806;18.270;2023-05-25T09:25:05;101201.72;;;17.68;100.00
51928;BME280;37953;52.806;18.270;2023-05-25T09:27:34;101213.88;;;17.74;100.00
51928;BME280;37953;52.806;18.270;2023-05-25T09:30:05;101212.09;;;17.77;100.00
51928;BME280;37953;52.806;18.270;2023-05-25T09:32:31;101197.16;;;17.81;100.00
51928;BME280;37953;52.806;18.270;2023-05-25T09:35:11;101206.69;;;17.89;100.00
51928;BME280;37953;52.806;18.270;2023-05-25T09:37:39;101209.22;;;17.94;100.00
51928;BME280;37953;52.806;18.270;2023-05-25T09:40:06;101210.06;;;17.98;100.00
51928;BME280;37953;52.806;18.270;2023-05-25T09:42:37;101206.50;;;18.02;100.00
51928;BME280;37953;52.806;18.270;2023-05-25T09:45:04;101207.25;;;18.08;100.00
51928;BME280;37953;52.806;18.270;2023-05-25T09:47:30;101207.16;;;18.13;100.00
51928;BME280;37953;52.806;18.270;2023-05-25T09:49:57;101207.94;;;18.20;100.00
51928;BME280;37953;52.806;18.270;2023-05-25T09:52:23;101202.59;;;18.24;100.00
51928;BME280;37953;52.806;18.270;2023-05-25T09:54:51;101212.16;;;18.28;100.00
51928;BME280;37953;52.806;18.270;2023-05-25T09:57:18;101209.44;;;18.35;100.00
51928;BME280;37953;52.806;18.270;2023-05-25T09:59:45;101209.31;;;18.41;100.00
51928;BME280;37953;52.806;18.270;2023-05-25T10:02:12;101203.19;;;18.42;100.00
51928;BME280;37953;52.806;18.270;2023-05-25T10:04:38;101196.09;;;18.45;100.00
51928;BME280;37953;52.806;18.270;2023-05-25T10:07:05;101203.91;;;18.50;100.00
51928;BME280;37953;52.806;18.270;2023-05-25T10:09:36;101205.56;;;18.54;100.00
51928;BME280;37953;52.806;18.270;2023-05-25T10:12:03;101209.03;;;18.56;100.00
51928;BME280;37953;52.806;18.270;2023-05-25T10:14:37;101213.34;;;18.60;100.00
51928;BME280;37953;52.806;18.270;2023-05-25T10:17:05;101215.03;;;18.64;100.00
51928;BME280;37953;52.806;18.270;2023-05-25T10:19:45;101209.66;;;18.70;100.00
51928;BME280;37953;52.806;18.270;2023-05-25T10:22:18;101203.44;;;18.75;100.00
51928;BME280;37953;52.806;18.270;2023-05-25T10:28:00;101211.22;;;18.82;100.00
51928;BME280;37953;52.806;18.270;2023-05-25T10:30:27;101208.53;;;18.85;100.00
51928;BME280;37953;52.806;18.270;2023-05-25T10:32:54;101218.09;;;18.89;100.00
51928;BME280;37953;52.806;18.270;2023-05-25T10:35:22;101219.84;;;18.90;100.00
51928;BME280;37953;52.806;18.270;2023-05-25T10:37:51;101215.41;;;18.92;100.00
51928;BME280;37953;52.806;18.270;2023-05-25T10:40:21;101212.72;;;18.96;100.00
51928;BME280;37953;52.806;18.270;2023-05-25T10:42:49;101216.16;;;18.99;100.00
51928;BME280;37953;52.806;18.270;2023-05-25T10:45:16;101209.09;;;19.01;100.00
51928;BME280;37953;52.806;18.270;2023-05-25T10:47:43;101212.50;;;19.05;100.00
51928;BME280;37953;52.806;18.270;2023-05-25T10:50:23;101204.59;;;19.06;100.00
51928;BME280;37953;52.806;18.270;2023-05-25T10:52:58;101210.66;;;19.11;100.00
51928;BME280;37953;52.806;18.270;2023-05-25T10:55:25;101204.34;;;19.17;100.00
51928;BME280;37953;52.806;18.270;2023-05-25T10:58:15;101200.72;;;19.24;100.00
51928;BME280;37953;52.806;18.270;2023-05-25T11:00:42;101200.59;;;19.29;100.00
51928;BME280;37953;52.806;18.270;2023-05-25T11:03:09;101199.63;;;19.35;100.00
51928;BME280;37953;52.806;18.270;2023-05-25T11:05:37;101213.53;;;19.40;100.00
51928;BME280;37953;52.806;18.270;2023-05-25T11:08:08;101198.47;;;19.46;100.00
51928;BME280;37953;52.806;18.270;2023-05-25T11:13:33;101190.31;;;19.57;100.00
51928;BME280;37953;52.806;18.270;2023-05-25T11:16:22;101189.22;;;19.66;100.00
51928;BME280;37953;52.806;18.270;2023-05-25T11:19:00;101193.53;;;19.71;100.00
51928;BME280;37953;52.806;18.270;2023-05-25T11:23:55;101185.50;;;19.76;100.00
51928;BME280;37953;52.806;18.270;2023-05-25T11:26:23;101190.63;;;19.82;100.00
51928;BME280;37953;52.806;18.270;2023-05-25T11:28:57;101196.63;;;19.89;100.00
51928;BME280;37953;52.806;18.270;2023-05-25T11:31:33;101190.41;;;19.91;100.00
51928;BME280;37953;52.806;18.270;2023-05-25T11:34:02;101193.94;;;19.92;100.00
51928;BME280;37953;52.806;18.270;2023-05-25T11:36:34;101189.56;;;19.89;100.00
51928;BME280;37953;52.806;18.270;2023-05-25T11:39:04;101180.78;;;19.90;100.00
51928;BME280;37953;52.806;18.270;2023-05-25T11:41:30;101185.06;;;19.95;100.00
51928;BME280;37953;52.806;18.270;2023-05-25T11:44:03;101186.69;;;20.00;100.00
51928;BME280;37953;52.806;18.270;2023-05-25T11:46:32;101186.56;;;20.05;100.00
51928;BME280;37953;52.806;18.270;2023-05-25T11:49:05;101189.22;;;20.05;100.00
51928;BME280;37953;52.806;18.270;2023-05-25T11:51:31;101185.59;;;20.09;100.00
51928;BME280;37953;52.806;18.270;2023-05-25T11:53:57;101175.81;;;20.12;100.00
51928;BME280;37953;52.806;18.270;2023-05-25T11:56:23;101181.00;;;20.17;100.00
51928;BME280;37953;52.806;18.270;2023-05-25T11:58:49;101182.59;;;20.23;100.00
51928;BME280;37953;52.806;18.270;2023-05-25T12:03:44;101183.06;;;20.39;100.00
51928;BME280;37953;52.806;18.270;2023-05-25T12:06:30;101181.16;;;20.44;100.00
51928;BME280;37953;52.806;18.270;2023-05-25T12:08:59;101174.91;;;20.48;100.00
51928;BME280;37953;52.806;18.270;2023-05-25T12:11:34;101178.22;;;20.54;100.00
51928;BME280;37953;52.806;18.270;2023-05-25T12:14:04;101178.19;;;20.58;100.00
51928;BME280;37953;52.806;18.270;2023-05-25T12:16:32;101177.28;;;20.59;100.00
51928;BME280;37953;52.806;18.270;2023-05-25T12:19:00;101165.84;;;20.58;100.00
51928;BME280;37953;52.806;18.270;2023-05-25T12:21:27;101168.50;;;20.57;100.00
51928;BME280;37953;52.806;18.270;2023-05-25T12:23:59;101170.28;;;20.56;100.00
51928;BME280;37953;52.806;18.270;2023-05-25T12:26:27;101162.25;;;20.61;100.00
51928;BME280;37953;52.806;18.270;2023-05-25T12:29:06;101158.59;;;20.66;100.00
51928;BME280;37953;52.806;18.270;2023-05-25T12:31:34;101158.47;;;20.69;99.27
51928;BME280;37953;52.806;18.270;2023-05-25T12:34:03;101158.31;;;20.76;100.00
51928;BME280;37953;52.806;18.270;2023-05-25T12:36:43;101160.78;;;20.82;100.00
51928;BME280;37953;52.806;18.270;2023-05-25T12:39:11;101165.06;;;20.86;100.00
51928;BME280;37953;52.806;18.270;2023-05-25T12:41:58;101168.41;;;20.92;100.00
51928;BME280;37953;52.806;18.270;2023-05-25T12:44:28;101157.69;;;20.97;99.40
51928;BME280;37953;52.806;18.270;2023-05-25T12:47:18;101151.31;;;21.04;100.00
51928;BME280;37953;52.806;18.270;2023-05-25T12:49:48;101154.66;;;21.11;100.00
51928;BME280;37953;52.806;18.270;2023-05-25T12:52:35;101150.22;;;21.11;96.90
51928;BME280;37953;52.806;18.270;2023-05-25T12:55:27;101151.22;;;21.07;93.73
51928;BME280;37953;52.806;18.270;2023-05-25T12:58:26;101157.53;;;21.02;92.99